sensor_id;sensor_type;location;lat;lon;timestamp;P1;durP1;ratioP1;P2;durP2;ratioP2
11054;SDS011;5580;50.106;8.702;2022-07-30T00:01:52;9.73;;;6.80;;
11054;SDS011;5580;50.106;8.702;2022-07-30T00:04:18;9.00;;;6.97;;
11054;SDS011;5580;50.106;8.702;2022-07-30T00:06:44;9.73;;;6.70;;
11054;SDS011;5580;50.106;8.702;2022-07-30T00:09:09;8.27;;;6.20;;
11054;SDS011;5580;50.106;8.702;2022-07-30T00:11:35;8.80;;;6.53;;
11054;SDS011;5580;50.106;8.702;2022-07-30T00:14:01;9.33;;;6.90;;
11054;SDS011;5580;50.106;8.702;2022-07-30T00:16:27;9.83;;;6.80;;
11054;SDS011;5580;50.106;8.702;2022-07-30T00:18:52;10.47;;;6.40;;
11054;SDS011;5580;50.106;8.702;2022-07-30T00:21:18;10.03;;;6.70;;
11054;SDS011;5580;50.106;8.702;2022-07-30T00:23:44;8.80;;;6.53;;
11054;SDS011;5580;50.106;8.702;2022-07-30T00:26:09;9.80;;;6.60;;
11054;SDS011;5580;50.106;8.702;2022-07-30T00:28:35;10.33;;;7.23;;
11054;SDS011;5580;50.106;8.702;2022-07-30T00:31:00;10.97;;;7.23;;
11054;SDS011;5580;50.106;8.702;2022-07-30T00:33:26;9.30;;;6.80;;
11054;SDS011;5580;50.106;8.702;2022-07-30T00:35:52;11.93;;;7.07;;
11054;SDS011;5580;50.106;8.702;2022-07-30T00:38:18;10.60;;;6.90;;
11054;SDS011;5580;50.106;8.702;2022-07-30T00:40:45;10.70;;;6.50;;
11054;SDS011;5580;50.106;8.702;2022-07-30T00:43:16;9.17;;;6.57;;
11054;SDS011;5580;50.106;8.702;2022-07-30T00:45:42;7.73;;;5.87;;
11054;SDS011;5580;50.106;8.702;2022-07-30T00:48:09;8.60;;;5.80;;
11054;SDS011;5580;50.106;8.702;2022-07-30T00:50:36;10.17;;;6.20;;
11054;SDS011;5580;50.106;8.702;2022-07-30T00:53:02;7.60;;;6.20;;
11054;SDS011;5580;50.106;8.702;2022-07-30T00:55:28;8.57;;;6.37;;
11054;SDS011;5580;50.106;8.702;2022-07-30T00:57:54;9.20;;;6.40;;
11054;SDS011;5580;50.106;8.702;2022-07-30T01:00:20;7.57;;;6.03;;
11054;SDS011;5580;50.106;8.702;2022-07-30T01:02:46;14.60;;;6.60;;
11054;SDS011;5580;50.106;8.702;2022-07-30T01:05:12;10.87;;;6.90;;
11054;SDS011;5580;50.106;8.702;2022-07-30T01:07:38;10.80;;;7.00;;
11054;SDS011;5580;50.106;8.702;2022-07-30T01:10:04;8.93;;;6.57;;
11054;SDS011;5580;50.106;8.702;2022-07-30T01:12:31;9.97;;;6.60;;
11054;SDS011;5580;50.106;8.702;2022-07-30T01:14:58;10.57;;;6.67;;
11054;SDS011;5580;50.106;8.702;2022-07-30T01:17:25;8.97;;;6.63;;
11054;SDS011;5580;50.106;8.702;2022-07-30T01:19:51;10.77;;;6.90;;
11054;SDS011;5580;50.106;8.702;2022-07-30T01:27:49;10.07;;;6.80;;
11054;SDS011;5580;50.106;8.702;2022-07-30T01:30:18;9.97;;;6.50;;
11054;SDS011;5580;50.106;8.702;2022-07-30T01:32:46;11.20;;;6.70;;
11054;SDS011;5580;50.106;8.702;2022-07-30T01:35:14;9.27;;;6.80;;
11054;SDS011;5580;50.106;8.702;2022-07-30T01:37:42;11.43;;;6.37;;
11054;SDS011;5580;50.106;8.702;2022-07-30T01:40:10;9.17;;;6.50;;
11054;SDS011;5580;50.106;8.702;2022-07-30T01:42:38;14.17;;;6.43;;
11054;SDS011;5580;50.106;8.702;2022-07-30T01:45:06;11.43;;;6.97;;
11054;SDS011;5580;50.106;8.702;2022-07-30T01:47:33;9.20;;;6.40;;
11054;SDS011;5580;50.106;8.702;2022-07-30T01:50:02;11.87;;;7.00;;
11054;SDS011;5580;50.106;8.702;2022-07-30T01:52:29;9.10;;;6.40;;
11054;SDS011;5580;50.106;8.702;2022-07-30T01:54:58;9.57;;;6.00;;
11054;SDS011;5580;50.106;8.702;2022-07-30T01:57:25;9.93;;;6.37;;
11054;SDS011;5580;50.106;8.702;2022-07-30T01:59:53;10.50;;;6.27;;
11054;SDS011;5580;50.106;8.702;2022-07-30T02:02:25;10.47;;;6.70;;
11054;SDS011;5580;50.106;8.702;2022-07-30T02:04:51;10.00;;;6.33;;
11054;SDS011;5580;50.106;8.702;2022-07-30T02:07:20;10.53;;;6.57;;
11054;SDS011;5580;50.106;8.702;2022-07-30T02:09:52;10.50;;;6.07;;
11054;SDS011;5580;50.106;8.702;2022-07-30T02:12:41;10.53;;;6.47;;
11054;SDS011;5580;50.106;8.702;2022-07-30T02:15:13;11.37;;;6.60;;
11054;SDS011;5580;50.106;8.702;2022-07-30T02:17:49;9.13;;;6.50;;
11054;SDS011;5580;50.106;8.702;2022-07-30T02:20:19;10.23;;;6.70;;
11054;SDS011;5580;50.106;8.702;2022-07-30T02:22:48;10.07;;;6.97;;
11054;SDS011;5580;50.106;8.702;2022-07-30T02:25:16;9.80;;;7.20;;
11054;SDS011;5580;50.106;8.702;2022-07-30T02:27:44;12.17;;;7.40;;
11054;SDS011;5580;50.106;8.702;2022-07-30T02:30:16;11.60;;;7.23;;
11054;SDS011;5580;50.106;8.702;2022-07-30T02:32:42;10.67;;;7.60;;
11054;SDS011;5580;50.106;8.702;2022-07-30T02:35:13;12.30;;;7.77;;
11054;SDS011;5580;50.106;8.702;2022-07-30T02:37:42;11.03;;;7.50;;
11054;SDS011;5580;50.106;8.702;2022-07-30T02:40:14;10.20;;;7.17;;
11054;SDS011;5580;50.106;8.702;2022-07-30T02:42:42;10.30;;;6.90;;
11054;SDS011;5580;50.106;8.702;2022-07-30T02:45:10;10.73;;;7.27;;
11054;SDS011;5580;50.106;8.702;2022-07-30T02:47:37;12.10;;;7.60;;
11054;SDS011;5580;50.106;8.702;2022-07-30T02:50:05;11.00;;;7.50;;
11054;SDS011;5580;50.106;8.702;2022-07-30T02:52:32;10.87;;;7.80;;
11054;SDS011;5580;50.106;8.702;2022-07-30T02:54:59;11.70;;;7.57;;
11054;SDS011;5580;50.106;8.702;2022-07-30T02:57:26;10.17;;;7.30;;
11054;SDS011;5580;50.106;8.702;2022-07-30T02:59:53;11.53;;;8.00;;
11054;SDS011;5580;50.106;8.702;2022-07-30T03:02:20;11.83;;;7.40;;
11054;SDS011;5580;50.106;8.702;2022-07-30T03:04:47;11.13;;;7.13;;
11054;SDS011;5580;50.106;8.702;2022-07-30T03:07:14;9.90;;;7.00;;
11054;SDS011;5580;50.106;8.702;2022-07-30T03:09:40;10.23;;;6.63;;
11054;SDS011;5580;50.106;8.702;2022-07-30T03:12:07;10.33;;;7.20;;
11054;SDS011;5580;50.106;8.702;2022-07-30T03:14:36;10.33;;;7.10;;
11054;SDS011;5580;50.106;8.702;2022-07-30T03:17:01;13.40;;;7.63;;
11054;SDS011;5580;50.106;8.702;2022-07-30T03:19:29;11.63;;;7.10;;
11054;SDS011;5580;50.106;8.702;2022-07-30T03:21:59;9.40;;;7.00;;
11054;SDS011;5580;50.106;8.702;2022-07-30T03:24:26;9.33;;;7.00;;
11054;SDS011;5580;50.106;8.702;2022-07-30T03:26:53;9.63;;;7.10;;
11054;SDS011;5580;50.106;8.702;2022-07-30T03:29:21;10.93;;;7.43;;
11054;SDS011;5580;50.106;8.702;2022-07-30T03:31:50;12.47;;;7.83;;
11054;SDS011;5580;50.106;8.702;2022-07-30T03:34:17;9.57;;;7.27;;
11054;SDS011;5580;50.106;8.702;2022-07-30T03:36:45;10.40;;;7.20;;
11054;SDS011;5580;50.106;8.702;2022-07-30T03:39:11;10.60;;;7.00;;
11054;SDS011;5580;50.106;8.702;2022-07-30T03:41:38;14.13;;;7.40;;
11054;SDS011;5580;50.106;8.702;2022-07-30T03:44:04;11.60;;;7.20;;
11054;SDS011;5580;50.106;8.702;2022-07-30T03:46:31;11.23;;;7.43;;
11054;SDS011;5580;50.106;8.702;2022-07-30T03:49:00;10.47;;;7.60;;
11054;SDS011;5580;50.106;8.702;2022-07-30T03:51:27;10.60;;;7.40;;
11054;SDS011;5580;50.106;8.702;2022-07-30T03:53:53;11.60;;;7.70;;
11054;SDS011;5580;50.106;8.702;2022-07-30T03:56:20;11.27;;;7.17;;
11054;SDS011;5580;50.106;8.702;2022-07-30T03:58:46;11.03;;;7.53;;
11054;SDS011;5580;50.106;8.702;2022-07-30T04:01:12;12.77;;;8.20;;
11054;SDS011;5580;50.106;8.702;2022-07-30T04:03:37;12.33;;;7.97;;
11054;SDS011;5580;50.106;8.702;2022-07-30T04:06:03;12.93;;;8.27;;
11054;SDS011;5580;50.106;8.702;2022-07-30T04:08:29;11.27;;;9.20;;
11054;SDS011;5580;50.106;8.702;2022-07-30T04:10:55;14.30;;;9.33;;
11054;SDS011;5580;50.106;8.702;2022-07-30T04:13:20;14.67;;;9.83;;
11054;SDS011;5580;50.106;8.702;2022-07-30T04:18:27;12.87;;;9.20;;
11054;SDS011;5580;50.106;8.702;2022-07-30T04:20:59;14.03;;;9.40;;
11054;SDS011;5580;50.106;8.702;2022-07-30T04:23:31;12.53;;;9.60;;
11054;SDS011;5580;50.106;8.702;2022-07-30T04:25:58;11.67;;;9.10;;
11054;SDS011;5580;50.106;8.702;2022-07-30T04:28:25;13.67;;;9.70;;
11054;SDS011;5580;50.106;8.702;2022-07-30T04:30:52;14.07;;;9.37;;
11054;SDS011;5580;50.106;8.702;2022-07-30T04:33:18;11.50;;;8.70;;
11054;SDS011;5580;50.106;8.702;2022-07-30T04:35:44;13.77;;;9.30;;
11054;SDS011;5580;50.106;8.702;2022-07-30T04:38:10;12.47;;;8.60;;
11054;SDS011;5580;50.106;8.702;2022-07-30T04:40:38;13.27;;;9.13;;
11054;SDS011;5580;50.106;8.702;2022-07-30T04:43:04;12.73;;;9.03;;
11054;SDS011;5580;50.106;8.702;2022-07-30T04:45:30;12.10;;;8.77;;
11054;SDS011;5580;50.106;8.702;2022-07-30T04:47:56;14.03;;;9.00;;
11054;SDS011;5580;50.106;8.702;2022-07-30T04:50:21;11.60;;;8.50;;
11054;SDS011;5580;50.106;8.702;2022-07-30T04:52:50;12.97;;;8.97;;
11054;SDS011;5580;50.106;8.702;2022-07-30T04:55:17;11.93;;;9.00;;
11054;SDS011;5580;50.106;8.702;2022-07-30T04:57:44;13.00;;;8.83;;
11054;SDS011;5580;50.106;8.702;2022-07-30T05:00:12;12.67;;;9.23;;
11054;SDS011;5580;50.106;8.702;2022-07-30T05:02:38;12.87;;;9.23;;
11054;SDS011;5580;50.106;8.702;2022-07-30T05:05:05;11.60;;;8.10;;
11054;SDS011;5580;50.106;8.702;2022-07-30T05:07:32;12.07;;;8.63;;
11054;SDS011;5580;50.106;8.702;2022-07-30T05:09:59;12.97;;;8.73;;
11054;SDS011;5580;50.106;8.702;2022-07-30T05:12:31;13.77;;;8.90;;
11054;SDS011;5580;50.106;8.702;2022-07-30T05:15:07;13.87;;;8.63;;
11054;SDS011;5580;50.106;8.702;2022-07-30T05:17:34;12.33;;;8.50;;
11054;SDS011;5580;50.106;8.702;2022-07-30T05:20:00;10.23;;;7.80;;
11054;SDS011;5580;50.106;8.702;2022-07-30T05:22:26;11.63;;;8.30;;
11054;SDS011;5580;50.106;8.702;2022-07-30T05:24:54;12.87;;;8.00;;
11054;SDS011;5580;50.106;8.702;2022-07-30T05:27:20;13.87;;;7.80;;
11054;SDS011;5580;50.106;8.702;2022-07-30T05:29:46;10.43;;;7.83;;
11054;SDS011;5580;50.106;8.702;2022-07-30T05:32:12;10.87;;;7.53;;
11054;SDS011;5580;50.106;8.702;2022-07-30T05:34:37;11.93;;;7.80;;
11054;SDS011;5580;50.106;8.702;2022-07-30T05:37:03;11.80;;;7.70;;
11054;SDS011;5580;50.106;8.702;2022-07-30T05:39:29;12.17;;;7.93;;
11054;SDS011;5580;50.106;8.702;2022-07-30T05:41:54;11.67;;;7.90;;
11054;SDS011;5580;50.106;8.702;2022-07-30T05:44:20;9.97;;;7.70;;
11054;SDS011;5580;50.106;8.702;2022-07-30T05:46:46;12.67;;;7.30;;
11054;SDS011;5580;50.106;8.702;2022-07-30T05:49:11;11.20;;;7.30;;
11054;SDS011;5580;50.106;8.702;2022-07-30T05:51:37;12.33;;;7.57;;
11054;SDS011;5580;50.106;8.702;2022-07-30T05:54:03;10.93;;;7.60;;
11054;SDS011;5580;50.106;8.702;2022-07-30T05:56:29;12.60;;;8.20;;
11054;SDS011;5580;50.106;8.702;2022-07-30T05:58:55;12.43;;;8.30;;
11054;SDS011;5580;50.106;8.702;2022-07-30T06:01:21;12.57;;;7.93;;
11054;SDS011;5580;50.106;8.702;2022-07-30T06:03:47;11.47;;;7.93;;
11054;SDS011;5580;50.106;8.702;2022-07-30T06:06:13;11.30;;;7.70;;
11054;SDS011;5580;50.106;8.702;2022-07-30T06:08:39;13.00;;;8.20;;
11054;SDS011;5580;50.106;8.702;2022-07-30T06:11:04;11.90;;;8.13;;
11054;SDS011;5580;50.106;8.702;2022-07-30T06:13:32;11.50;;;7.50;;
11054;SDS011;5580;50.106;8.702;2022-07-30T06:15:58;14.63;;;8.03;;
11054;SDS011;5580;50.106;8.702;2022-07-30T06:18:24;12.90;;;8.03;;
11054;SDS011;5580;50.106;8.702;2022-07-30T06:20:52;13.13;;;9.10;;
11054;SDS011;5580;50.106;8.702;2022-07-30T06:23:19;13.90;;;8.90;;
11054;SDS011;5580;50.106;8.702;2022-07-30T06:25:46;17.70;;;8.63;;
11054;SDS011;5580;50.106;8.702;2022-07-30T06:28:12;11.80;;;7.97;;
11054;SDS011;5580;50.106;8.702;2022-07-30T06:30:39;11.83;;;8.93;;
11054;SDS011;5580;50.106;8.702;2022-07-30T06:33:05;12.33;;;8.67;;
11054;SDS011;5580;50.106;8.702;2022-07-30T06:35:30;13.87;;;9.37;;
11054;SDS011;5580;50.106;8.702;2022-07-30T06:37:58;13.73;;;9.20;;
11054;SDS011;5580;50.106;8.702;2022-07-30T06:40:23;17.97;;;9.67;;
11054;SDS011;5580;50.106;8.702;2022-07-30T06:42:49;12.20;;;9.50;;
11054;SDS011;5580;50.106;8.702;2022-07-30T06:45:15;13.57;;;9.93;;
11054;SDS011;5580;50.106;8.702;2022-07-30T06:47:41;14.93;;;10.97;;
11054;SDS011;5580;50.106;8.702;2022-07-30T06:50:07;14.60;;;10.30;;
11054;SDS011;5580;50.106;8.702;2022-07-30T06:52:33;14.90;;;10.70;;
11054;SDS011;5580;50.106;8.702;2022-07-30T06:54:58;13.67;;;10.00;;
11054;SDS011;5580;50.106;8.702;2022-07-30T06:57:24;16.13;;;10.47;;
11054;SDS011;5580;50.106;8.702;2022-07-30T06:59:50;14.67;;;10.00;;
11054;SDS011;5580;50.106;8.702;2022-07-30T07:02:15;14.93;;;10.10;;
11054;SDS011;5580;50.106;8.702;2022-07-30T07:04:41;14.00;;;10.07;;
11054;SDS011;5580;50.106;8.702;2022-07-30T07:07:06;13.57;;;10.23;;
11054;SDS011;5580;50.106;8.702;2022-07-30T07:09:32;14.43;;;9.30;;
11054;SDS011;5580;50.106;8.702;2022-07-30T07:11:58;14.13;;;9.77;;
11054;SDS011;5580;50.106;8.702;2022-07-30T07:14:23;13.93;;;9.77;;
11054;SDS011;5580;50.106;8.702;2022-07-30T07:16:49;14.07;;;9.23;;
11054;SDS011;5580;50.106;8.702;2022-07-30T07:19:15;15.20;;;9.03;;
11054;SDS011;5580;50.106;8.702;2022-07-30T07:21:40;11.90;;;8.60;;
11054;SDS011;5580;50.106;8.702;2022-07-30T07:24:06;14.83;;;9.40;;
11054;SDS011;5580;50.106;8.702;2022-07-30T07:26:33;13.77;;;9.00;;
11054;SDS011;5580;50.106;8.702;2022-07-30T07:28:59;16.13;;;9.60;;
11054;SDS011;5580;50.106;8.702;2022-07-30T07:31:24;16.90;;;9.87;;
11054;SDS011;5580;50.106;8.702;2022-07-30T07:33:50;14.93;;;9.30;;
11054;SDS011;5580;50.106;8.702;2022-07-30T07:36:19;13.40;;;8.93;;
11054;SDS011;5580;50.106;8.702;2022-07-30T07:38:45;12.97;;;8.13;;
11054;SDS011;5580;50.106;8.702;2022-07-30T07:41:10;13.87;;;8.70;;
11054;SDS011;5580;50.106;8.702;2022-07-30T07:43:36;15.33;;;8.73;;
11054;SDS011;5580;50.106;8.702;2022-07-30T07:46:02;15.30;;;9.60;;
11054;SDS011;5580;50.106;8.702;2022-07-30T07:48:28;16.93;;;8.40;;
11054;SDS011;5580;50.106;8.702;2022-07-30T07:50:53;14.43;;;9.03;;
11054;SDS011;5580;50.106;8.702;2022-07-30T07:53:19;13.77;;;8.37;;
11054;SDS011;5580;50.106;8.702;2022-07-30T07:55:45;14.27;;;8.30;;
11054;SDS011;5580;50.106;8.702;2022-07-30T07:58:10;11.73;;;7.73;;
11054;SDS011;5580;50.106;8.702;2022-07-30T08:00:37;13.20;;;8.87;;
11054;SDS011;5580;50.106;8.702;2022-07-30T08:03:04;13.30;;;8.70;;
11054;SDS011;5580;50.106;8.702;2022-07-30T08:05:29;15.83;;;9.50;;
11054;SDS011;5580;50.106;8.702;2022-07-30T08:07:55;13.03;;;8.13;;
11054;SDS011;5580;50.106;8.702;2022-07-30T08:10:21;17.87;;;9.20;;
11054;SDS011;5580;50.106;8.702;2022-07-30T08:12:47;12.83;;;8.60;;
11054;SDS011;5580;50.106;8.702;2022-07-30T08:15:13;18.43;;;9.13;;
11054;SDS011;5580;50.106;8.702;2022-07-30T08:17:42;14.53;;;8.10;;
11054;SDS011;5580;50.106;8.702;2022-07-30T08:20:09;14.13;;;8.10;;
11054;SDS011;5580;50.106;8.702;2022-07-30T08:22:36;14.57;;;7.77;;
11054;SDS011;5580;50.106;8.702;2022-07-30T08:25:03;11.47;;;7.60;;
11054;SDS011;5580;50.106;8.702;2022-07-30T08:27:29;12.57;;;7.33;;
11054;SDS011;5580;50.106;8.702;2022-07-30T08:29:55;11.27;;;7.23;;
11054;SDS011;5580;50.106;8.702;2022-07-30T08:32:21;12.50;;;7.60;;
11054;SDS011;5580;50.106;8.702;2022-07-30T08:34:46;15.30;;;8.13;;
11054;SDS011;5580;50.106;8.702;2022-07-30T08:37:12;17.70;;;8.50;;
11054;SDS011;5580;50.106;8.702;2022-07-30T08:39:38;12.87;;;6.93;;
11054;SDS011;5580;50.106;8.702;2022-07-30T08:42:03;13.37;;;8.03;;
11054;SDS011;5580;50.106;8.702;2022-07-30T08:44:29;13.87;;;7.67;;
11054;SDS011;5580;50.106;8.702;2022-07-30T08:46:56;17.20;;;9.30;;
11054;SDS011;5580;50.106;8.702;2022-07-30T08:49:23;15.37;;;8.47;;
11054;SDS011;5580;50.106;8.702;2022-07-30T08:51:49;14.47;;;8.70;;
11054;SDS011;5580;50.106;8.702;2022-07-30T08:54:17;13.83;;;7.80;;
11054;SDS011;5580;50.106;8.702;2022-07-30T08:56:44;14.73;;;8.40;;
11054;SDS011;5580;50.106;8.702;2022-07-30T08:59:10;12.53;;;7.40;;
11054;SDS011;5580;50.106;8.702;2022-07-30T09:01:36;13.30;;;7.90;;
11054;SDS011;5580;50.106;8.702;2022-07-30T09:04:02;14.50;;;8.43;;
11054;SDS011;5580;50.106;8.702;2022-07-30T09:06:28;13.17;;;7.00;;
11054;SDS011;5580;50.106;8.702;2022-07-30T09:08:53;13.33;;;8.47;;
11054;SDS011;5580;50.106;8.702;2022-07-30T09:11:19;13.30;;;7.57;;
11054;SDS011;5580;50.106;8.702;2022-07-30T09:13:45;14.23;;;6.93;;
11054;SDS011;5580;50.106;8.702;2022-07-30T09:16:23;13.23;;;7.40;;
11054;SDS011;5580;50.106;8.702;2022-07-30T09:18:50;15.00;;;7.83;;
11054;SDS011;5580;50.106;8.702;2022-07-30T09:21:19;13.00;;;8.07;;
11054;SDS011;5580;50.106;8.702;2022-07-30T09:23:54;13.10;;;7.80;;
11054;SDS011;5580;50.106;8.702;2022-07-30T09:26:23;13.53;;;8.07;;
11054;SDS011;5580;50.106;8.702;2022-07-30T09:28:48;13.50;;;8.67;;
11054;SDS011;5580;50.106;8.702;2022-07-30T09:31:15;13.23;;;7.27;;
11054;SDS011;5580;50.106;8.702;2022-07-30T09:33:42;16.33;;;9.10;;
11054;SDS011;5580;50.106;8.702;2022-07-30T09:36:16;13.30;;;7.67;;
11054;SDS011;5580;50.106;8.702;2022-07-30T09:41:11;11.10;;;6.70;;
11054;SDS011;5580;50.106;8.702;2022-07-30T09:43:42;10.13;;;6.30;;
11054;SDS011;5580;50.106;8.702;2022-07-30T09:46:09;13.87;;;7.67;;
11054;SDS011;5580;50.106;8.702;2022-07-30T09:48:35;11.00;;;7.13;;
11054;SDS011;5580;50.106;8.702;2022-07-30T09:51:01;12.77;;;6.53;;
11054;SDS011;5580;50.106;8.702;2022-07-30T09:53:27;13.57;;;7.37;;
11054;SDS011;5580;50.106;8.702;2022-07-30T09:55:52;13.30;;;7.80;;
11054;SDS011;5580;50.106;8.702;2022-07-30T09:58:18;15.07;;;9.13;;
11054;SDS011;5580;50.106;8.702;2022-07-30T10:00:44;12.73;;;7.17;;
11054;SDS011;5580;50.106;8.702;2022-07-30T10:03:17;12.30;;;7.03;;
11054;SDS011;5580;50.106;8.702;2022-07-30T10:05:54;12.30;;;7.30;;
11054;SDS011;5580;50.106;8.702;2022-07-30T10:08:43;10.30;;;6.50;;
11054;SDS011;5580;50.106;8.702;2022-07-30T10:11:10;11.37;;;6.90;;
11054;SDS011;5580;50.106;8.702;2022-07-30T10:13:37;10.97;;;6.73;;
11054;SDS011;5580;50.106;8.702;2022-07-30T10:16:04;14.57;;;7.40;;
11054;SDS011;5580;50.106;8.702;2022-07-30T10:18:30;12.07;;;6.53;;
11054;SDS011;5580;50.106;8.702;2022-07-30T10:20:56;15.50;;;7.00;;
11054;SDS011;5580;50.106;8.702;2022-07-30T10:23:23;13.73;;;7.20;;
11054;SDS011;5580;50.106;8.702;2022-07-30T10:25:53;15.30;;;6.60;;
11054;SDS011;5580;50.106;8.702;2022-07-30T10:28:20;11.97;;;6.60;;
11054;SDS011;5580;50.106;8.702;2022-07-30T10:30:50;12.63;;;6.53;;
11054;SDS011;5580;50.106;8.702;2022-07-30T10:33:17;10.83;;;5.83;;
11054;SDS011;5580;50.106;8.702;2022-07-30T10:35:44;10.57;;;5.63;;
11054;SDS011;5580;50.106;8.702;2022-07-30T10:38:10;9.97;;;6.13;;
11054;SDS011;5580;50.106;8.702;2022-07-30T10:46:28;11.30;;;5.53;;
11054;SDS011;5580;50.106;8.702;2022-07-30T10:49:11;11.67;;;6.00;;
11054;SDS011;5580;50.106;8.702;2022-07-30T10:51:42;11.40;;;6.13;;
11054;SDS011;5580;50.106;8.702;2022-07-30T11:02:14;10.83;;;6.23;;
11054;SDS011;5580;50.106;8.702;2022-07-30T11:04:41;10.73;;;6.40;;
11054;SDS011;5580;50.106;8.702;2022-07-30T11:09:48;10.80;;;6.00;;
11054;SDS011;5580;50.106;8.702;2022-07-30T11:12:15;12.47;;;6.00;;
11054;SDS011;5580;50.106;8.702;2022-07-30T11:15:07;9.63;;;5.83;;
11054;SDS011;5580;50.106;8.702;2022-07-30T11:20:23;8.50;;;5.80;;
11054;SDS011;5580;50.106;8.702;2022-07-30T11:22:48;9.07;;;5.33;;
11054;SDS011;5580;50.106;8.702;2022-07-30T11:27:46;7.40;;;5.20;;
11054;SDS011;5580;50.106;8.702;2022-07-30T11:32:40;9.80;;;5.53;;
11054;SDS011;5580;50.106;8.702;2022-07-30T11:43:16;8.97;;;5.30;;
11054;SDS011;5580;50.106;8.702;2022-07-30T11:46:11;9.90;;;5.57;;
11054;SDS011;5580;50.106;8.702;2022-07-30T11:48:54;9.40;;;5.90;;
11054;SDS011;5580;50.106;8.702;2022-07-30T11:51:21;14.07;;;5.77;;
11054;SDS011;5580;50.106;8.702;2022-07-30T11:56:26;9.70;;;5.40;;
11054;SDS011;5580;50.106;8.702;2022-07-30T11:58:52;6.63;;;4.87;;
11054;SDS011;5580;50.106;8.702;2022-07-30T12:01:33;8.63;;;5.00;;
11054;SDS011;5580;50.106;8.702;2022-07-30T12:04:03;8.07;;;4.87;;
11054;SDS011;5580;50.106;8.702;2022-07-30T12:06:30;6.97;;;5.17;;
11054;SDS011;5580;50.106;8.702;2022-07-30T12:08:56;8.80;;;4.97;;
11054;SDS011;5580;50.106;8.702;2022-07-30T12:11:23;6.30;;;5.10;;
11054;SDS011;5580;50.106;8.702;2022-07-30T12:13:55;8.57;;;5.10;;
11054;SDS011;5580;50.106;8.702;2022-07-30T12:16:23;8.60;;;5.30;;
11054;SDS011;5580;50.106;8.702;2022-07-30T12:18:50;6.20;;;4.90;;
11054;SDS011;5580;50.106;8.702;2022-07-30T12:21:16;8.93;;;4.90;;
11054;SDS011;5580;50.106;8.702;2022-07-30T12:23:56;7.70;;;4.90;;
11054;SDS011;5580;50.106;8.702;2022-07-30T12:26:26;10.00;;;5.10;;
11054;SDS011;5580;50.106;8.702;2022-07-30T12:28:56;9.50;;;5.10;;
11054;SDS011;5580;50.106;8.702;2022-07-30T12:31:24;7.07;;;4.80;;
11054;SDS011;5580;50.106;8.702;2022-07-30T12:33:50;11.13;;;5.00;;
11054;SDS011;5580;50.106;8.702;2022-07-30T12:36:23;7.27;;;4.90;;
11054;SDS011;5580;50.106;8.702;2022-07-30T12:38:54;7.37;;;5.00;;
11054;SDS011;5580;50.106;8.702;2022-07-30T12:41:21;7.90;;;4.93;;
11054;SDS011;5580;50.106;8.702;2022-07-30T12:44:03;8.10;;;5.07;;
11054;SDS011;5580;50.106;8.702;2022-07-30T12:46:29;7.70;;;5.10;;
11054;SDS011;5580;50.106;8.702;2022-07-30T12:49:07;8.50;;;5.27;;
11054;SDS011;5580;50.106;8.702;2022-07-30T12:51:34;8.20;;;5.23;;
11054;SDS011;5580;50.106;8.702;2022-07-30T12:54:12;13.20;;;5.20;;
11054;SDS011;5580;50.106;8.702;2022-07-30T12:56:41;8.53;;;4.80;;
11054;SDS011;5580;50.106;8.702;2022-07-30T12:59:27;7.93;;;4.97;;
11054;SDS011;5580;50.106;8.702;2022-07-30T13:01:56;8.47;;;4.90;;
11054;SDS011;5580;50.106;8.702;2022-07-30T13:04:24;9.13;;;5.03;;
11054;SDS011;5580;50.106;8.702;2022-07-30T13:07:09;8.13;;;5.30;;
11054;SDS011;5580;50.106;8.702;2022-07-30T13:09:36;8.13;;;5.47;;
11054;SDS011;5580;50.106;8.702;2022-07-30T13:12:02;8.03;;;4.90;;
11054;SDS011;5580;50.106;8.702;2022-07-30T13:14:28;9.17;;;5.00;;
11054;SDS011;5580;50.106;8.702;2022-07-30T13:16:55;10.32;;;5.13;;
11054;SDS011;5580;50.106;8.702;2022-07-30T13:19:22;7.97;;;5.10;;
11054;SDS011;5580;50.106;8.702;2022-07-30T13:21:48;5.93;;;4.90;;
11054;SDS011;5580;50.106;8.702;2022-07-30T13:24:13;6.13;;;4.90;;
11054;SDS011;5580;50.106;8.702;2022-07-30T13:26:39;8.00;;;5.20;;
11054;SDS011;5580;50.106;8.702;2022-07-30T13:29:05;7.37;;;5.00;;
11054;SDS011;5580;50.106;8.702;2022-07-30T13:31:31;7.00;;;5.10;;
11054;SDS011;5580;50.106;8.702;2022-07-30T13:33:57;8.93;;;5.10;;
11054;SDS011;5580;50.106;8.702;2022-07-30T13:36:22;7.90;;;5.20;;
11054;SDS011;5580;50.106;8.702;2022-07-30T13:38:48;6.53;;;5.20;;
11054;SDS011;5580;50.106;8.702;2022-07-30T13:41:14;9.63;;;5.33;;
11054;SDS011;5580;50.106;8.702;2022-07-30T13:43:42;7.20;;;5.07;;
11054;SDS011;5580;50.106;8.702;2022-07-30T13:46:08;9.67;;;5.43;;
11054;SDS011;5580;50.106;8.702;2022-07-30T13:48:33;7.33;;;5.00;;
11054;SDS011;5580;50.106;8.702;2022-07-30T13:51:03;10.07;;;5.40;;
11054;SDS011;5580;50.106;8.702;2022-07-30T13:53:29;5.80;;;5.20;;
11054;SDS011;5580;50.106;8.702;2022-07-30T13:55:55;9.97;;;5.60;;
11054;SDS011;5580;50.106;8.702;2022-07-30T13:58:23;8.17;;;5.50;;
11054;SDS011;5580;50.106;8.702;2022-07-30T14:00:49;8.20;;;5.70;;
11054;SDS011;5580;50.106;8.702;2022-07-30T14:03:15;9.53;;;5.57;;
11054;SDS011;5580;50.106;8.702;2022-07-30T14:05:40;8.77;;;5.50;;
11054;SDS011;5580;50.106;8.702;2022-07-30T14:08:06;8.63;;;5.80;;
11054;SDS011;5580;50.106;8.702;2022-07-30T14:10:33;7.23;;;5.10;;
11054;SDS011;5580;50.106;8.702;2022-07-30T14:13:01;8.67;;;5.23;;
11054;SDS011;5580;50.106;8.702;2022-07-30T14:15:28;7.13;;;5.30;;
11054;SDS011;5580;50.106;8.702;2022-07-30T14:17:58;8.77;;;5.10;;
11054;SDS011;5580;50.106;8.702;2022-07-30T14:20:24;5.90;;;5.00;;
11054;SDS011;5580;50.106;8.702;2022-07-30T14:22:50;8.60;;;4.93;;
11054;SDS011;5580;50.106;8.702;2022-07-30T14:25:17;6.93;;;4.60;;
11054;SDS011;5580;50.106;8.702;2022-07-30T14:27:43;6.73;;;4.90;;
11054;SDS011;5580;50.106;8.702;2022-07-30T14:30:09;11.20;;;5.30;;
11054;SDS011;5580;50.106;8.702;2022-07-30T14:32:36;8.60;;;5.13;;
11054;SDS011;5580;50.106;8.702;2022-07-30T14:35:06;6.03;;;4.93;;
11054;SDS011;5580;50.106;8.702;2022-07-30T14:37:33;8.33;;;5.10;;
11054;SDS011;5580;50.106;8.702;2022-07-30T14:39:59;10.00;;;5.03;;
11054;SDS011;5580;50.106;8.702;2022-07-30T14:42:25;8.83;;;4.90;;
11054;SDS011;5580;50.106;8.702;2022-07-30T14:44:50;8.37;;;4.77;;
11054;SDS011;5580;50.106;8.702;2022-07-30T14:47:16;8.65;;;5.13;;
11054;SDS011;5580;50.106;8.702;2022-07-30T14:49:42;8.90;;;4.73;;
11054;SDS011;5580;50.106;8.702;2022-07-30T14:52:07;8.13;;;4.63;;
11054;SDS011;5580;50.106;8.702;2022-07-30T14:54:33;9.77;;;4.83;;
11054;SDS011;5580;50.106;8.702;2022-07-30T14:56:58;8.60;;;4.60;;
11054;SDS011;5580;50.106;8.702;2022-07-30T14:59:24;6.53;;;4.43;;
11054;SDS011;5580;50.106;8.702;2022-07-30T15:01:54;6.70;;;4.40;;
11054;SDS011;5580;50.106;8.702;2022-07-30T15:04:20;9.23;;;4.50;;
11054;SDS011;5580;50.106;8.702;2022-07-30T15:06:46;6.03;;;4.60;;
11054;SDS011;5580;50.106;8.702;2022-07-30T15:09:11;7.30;;;4.68;;
11054;SDS011;5580;50.106;8.702;2022-07-30T15:11:38;11.33;;;4.67;;
11054;SDS011;5580;50.106;8.702;2022-07-30T15:14:03;7.03;;;4.67;;
11054;SDS011;5580;50.106;8.702;2022-07-30T15:16:30;6.93;;;4.40;;
11054;SDS011;5580;50.106;8.702;2022-07-30T15:18:55;7.00;;;4.10;;
11054;SDS011;5580;50.106;8.702;2022-07-30T15:21:21;5.50;;;4.40;;
11054;SDS011;5580;50.106;8.702;2022-07-30T15:23:46;6.20;;;4.40;;
11054;SDS011;5580;50.106;8.702;2022-07-30T15:26:12;7.83;;;4.37;;
11054;SDS011;5580;50.106;8.702;2022-07-30T15:28:38;6.63;;;4.47;;
11054;SDS011;5580;50.106;8.702;2022-07-30T15:31:03;7.03;;;4.23;;
11054;SDS011;5580;50.106;8.702;2022-07-30T15:33:29;6.43;;;4.60;;
11054;SDS011;5580;50.106;8.702;2022-07-30T15:35:54;6.90;;;4.77;;
11054;SDS011;5580;50.106;8.702;2022-07-30T15:38:20;8.37;;;4.47;;
11054;SDS011;5580;50.106;8.702;2022-07-30T15:40:46;8.40;;;4.30;;